Time;durP1;ratioP1;P1;durP2;ratioP2;P2;SDS_P1;SDS_P2;PMS_P1;PMS_P2;Temp;Humidity;BMP_temperature;BMP_pressure;BME280_temperature;BME280_humidity;BME280_pressure;Samples;Min_cycle;Max_cycle;Signal;HPM_P1;HPM_P2
2022/07/30 00:00:29;;;;;;;6.15;3.63;;;;;;;20.84;76.81;100401.13;20913261;28;20073;-81
2022/07/30 00:10:30;;;;;;;6.95;3.78;;;;;;;20.69;77.68;100392.19;20929335;28;20181;-80
2022/07/30 00:20:31;;;;;;;6.50;4.00;;;;;;;20.32;80.96;100389.91;20921488;28;20386;-80
2022/07/30 00:30:33;;;;;;;7.05;3.75;;;;;;;20.20;81.76;100391.44;20937179;28;20107;-82
2022/07/30 00:40:34;;;;;;;6.22;3.80;;;;;;;19.88;84.23;100399.41;20917660;28;20131;-82
2022/07/30 00:50:36;;;;;;;6.05;3.72;;;;;;;19.76;84.11;100392.09;20915464;28;20049;-82
2022/07/30 01:00:37;;;;;;;7.55;3.70;;;;;;;19.53;86.36;100385.31;20910735;28;20049;-82
2022/07/30 01:10:40;;;;;;;9.20;4.63;;;;;;;19.41;88.89;100373.56;20932857;28;20611;-82
2022/07/30 01:20:42;;;;;;;10.35;4.78;;;;;;;19.27;89.57;100376.06;20934051;28;20045;-82
2022/07/30 01:30:43;;;;;;;8.52;3.92;;;;;;;19.05;87.45;100371.00;20936053;28;20107;-82
2022/07/30 01:40:45;;;;;;;7.60;4.30;;;;;;;18.91;88.86;100373.50;20935365;28;20041;-82
2022/07/30 01:50:50;;;;;;;7.65;4.38;;;;;;;18.65;92.45;100386.25;20938216;28;20048;-82
2022/07/30 02:00:53;;;;;;;8.30;4.40;;;;;;;18.65;92.41;100399.50;20918212;28;20037;-82
2022/07/30 02:10:55;;;;;;;7.03;4.70;;;;;;;18.57;90.82;100404.31;20918914;28;20045;-82
2022/07/30 02:20:56;;;;;;;7.28;4.40;;;;;;;18.44;92.21;100414.69;20928093;28;20136;-82
2022/07/30 02:30:58;;;;;;;8.50;4.70;;;;;;;18.25;94.26;100420.91;20925558;28;20075;-82
2022/07/30 02:41:03;;;;;;;6.78;4.60;;;;;;;18.00;96.17;100430.00;20914423;28;20080;-82
2022/07/30 02:51:04;;;;;;;7.53;4.88;;;;;;;17.82;96.70;100433.47;20918240;28;20064;-82
2022/07/30 03:01:06;;;;;;;7.32;4.70;;;;;;;17.78;93.15;100434.56;20903283;28;20045;-82
2022/07/30 03:11:09;;;;;;;8.23;4.25;;;;;;;17.82;94.82;100439.66;20920409;28;20103;-82
2022/07/30 03:21:11;;;;;;;10.20;4.68;;;;;;;17.57;97.69;100445.13;20930662;28;20049;-82
2022/07/30 03:31:12;;;;;;;7.40;4.97;;;;;;;17.43;96.87;100450.16;20933769;28;20065;-82
2022/07/30 03:41:14;;;;;;;10.13;5.00;;;;;;;17.35;97.54;100449.66;20913555;28;20045;-82
2022/07/30 03:51:16;;;;;;;6.75;4.45;;;;;;;17.27;98.22;100468.50;20931356;28;20053;-82
2022/07/30 04:01:17;;;;;;;8.10;4.78;;;;;;;17.27;97.70;100470.28;20911844;28;20061;-81
2022/07/30 04:11:19;;;;;;;11.65;5.20;;;;;;;17.31;97.79;100493.06;20909544;28;20098;-83
2022/07/30 04:21:40;;;;;;;9.27;5.40;;;;;;;17.22;100.00;100501.38;20927943;28;20134;-82
2022/07/30 04:31:41;;;;;;;7.53;4.70;;;;;;;17.31;99.85;100504.50;20926573;28;20041;-81
2022/07/30 04:41:43;;;;;;;9.25;5.50;;;;;;;17.49;96.51;100515.25;20928006;28;20128;-83
2022/07/30 04:51:49;;;;;;;9.32;5.38;;;;;;;18.14;89.69;100515.00;20925165;28;20041;-83
2022/07/30 05:01:51;;;;;;;9.38;4.80;;;;;;;18.18;89.45;100531.66;20899108;28;20124;-81
2022/07/30 05:11:52;;;;;;;8.48;5.22;;;;;;;18.35;88.57;100533.53;20919318;28;20045;-81
2022/07/30 05:21:54;;;;;;;9.27;5.40;;;;;;;18.60;88.40;100536.78;20908236;28;20059;-82
2022/07/30 05:31:55;;;;;;;7.57;4.90;;;;;;;18.81;87.14;100537.56;20918166;28;20043;-82
2022/07/30 05:42:02;;;;;;;11.75;4.88;;;;;;;18.97;86.74;100543.00;20928197;28;20049;-81
2022/07/30 05:52:04;;;;;;;8.57;5.45;;;;;;;19.28;85.04;100534.41;20920433;28;20056;-81
2022/07/30 06:02:06;;;;;;;6.93;4.65;;;;;;;19.51;83.31;100540.38;20915704;28;20453;-81
2022/07/30 06:12:07;;;;;;;6.57;4.40;;;;;;;19.73;82.44;100555.16;20917198;28;20508;-82
2022/07/30 06:22:09;;;;;;;7.05;4.00;;;;;;;20.12;80.97;100559.38;20915106;28;20081;-82
2022/07/30 06:32:10;;;;;;;7.40;4.28;;;;;;;20.46;77.13;100553.09;20909489;28;20085;-82
2022/07/30 06:42:12;;;;;;;6.47;3.67;;;;;;;21.48;71.03;100557.16;20889466;28;20144;-81
2022/07/30 06:52:13;;;;;;;6.18;3.70;;;;;;;22.28;64.62;100547.06;20892123;28;20049;-83
2022/07/30 07:02:19;;;;;;;9.02;3.53;;;;;;;22.38;61.74;100566.88;20918340;28;20045;-82
2022/07/30 07:12:20;;;;;;;6.75;3.38;;;;;;;22.58;61.23;100564.78;20899845;28;20511;-82
2022/07/30 07:22:21;;;;;;;6.68;3.50;;;;;;;22.79;59.11;100574.91;20867232;28;20041;-83
2022/07/30 07:32:23;;;;;;;7.57;3.55;;;;;;;22.98;58.39;100574.63;20882588;28;20038;-83
2022/07/30 07:42:24;;;;;;;6.88;3.10;;;;;;;23.43;55.68;100569.06;20900273;28;20464;-82
2022/07/30 07:52:25;;;;;;;9.05;4.25;;;;;;;23.33;56.30;100567.94;20886952;28;20137;-82
2022/07/30 08:02:27;;;;;;;5.65;3.10;;;;;;;23.84;55.89;100568.97;20904822;28;20041;-83
2022/07/30 08:12:28;;;;;;;7.13;3.63;;;;;;;23.98;56.06;100570.69;20882334;28;20050;-81
2022/07/30 08:22:30;;;;;;;8.30;3.40;;;;;;;23.94;53.79;100564.69;20869987;28;20069;-81
2022/07/30 08:32:31;;;;;;;5.53;3.13;;;;;;;24.20;52.59;100560.22;20887542;28;20048;-80
2022/07/30 08:42:32;;;;;;;8.98;3.65;;;;;;;23.95;53.04;100560.19;20896986;28;20052;-80
2022/07/30 08:52:34;;;;;;;9.38;3.33;;;;;;;23.69;55.12;100560.16;20913661;28;20088;-80
2022/07/30 09:02:35;;;;;;;7.78;3.10;;;;;;;23.95;54.49;100554.84;20891505;28;20044;-80
2022/07/30 09:12:37;;;;;;;5.13;2.90;;;;;;;24.78;49.74;100542.72;20894457;28;20049;-80
2022/07/30 09:22:38;;;;;;;5.03;3.05;;;;;;;25.40;48.25;100541.75;20913548;28;20171;-80
2022/07/30 09:32:39;;;;;;;8.35;3.47;;;;;;;25.70;46.50;100541.22;20913686;28;20041;-81
2022/07/30 09:42:41;;;;;;;6.88;2.55;;;;;;;26.17;43.59;100534.03;20910962;28;20044;-80
2022/07/30 09:52:42;;;;;;;4.90;2.85;;;;;;;25.84;44.04;100541.06;20921041;28;20523;-81
2022/07/30 10:02:50;;;;;;;8.25;2.78;;;;;;;25.46;45.11;100533.22;20905800;28;20045;-81
2022/07/30 10:12:52;;;;;;;5.07;2.50;;;;;;;26.57;36.51;100517.44;20905206;28;20068;-81
2022/07/30 10:22:53;;;;;;;5.00;2.05;;;;;;;27.18;35.16;100516.97;20908462;28;20132;-80
2022/07/30 10:32:55;;;;;;;7.50;2.22;;;;;;;26.43;37.22;100505.13;20927091;28;20045;-81
2022/07/30 10:42:57;;;;;;;5.25;2.10;;;;;;;27.28;35.07;100494.56;20941103;28;20049;-80
2022/07/30 10:52:59;;;;;;;4.90;2.25;;;;;;;27.23;35.79;100494.09;20939325;28;20041;-80
2022/07/30 11:03:01;;;;;;;6.00;2.20;;;;;;;26.46;36.36;100490.63;20918974;28;20048;-81
2022/07/30 11:13:14;;;;;;;7.37;2.40;;;;;;;26.45;36.67;100488.91;20934082;28;20053;-81
2022/07/30 11:23:15;;;;;;;3.30;1.80;;;;;;;26.89;34.43;100479.91;20911817;28;20417;-80
2022/07/30 11:33:17;;;;;;;5.38;2.10;;;;;;;28.26;31.97;100471.78;20942909;28;20120;-81
2022/07/30 11:43:19;;;;;;;7.82;2.08;;;;;;;27.78;32.36;100461.66;20945856;28;20460;-81
2022/07/30 11:53:35;;;;;;;5.00;1.83;;;;;;;28.11;31.75;100464.06;20934080;28;20052;-81
2022/07/30 12:03:36;;;;;;;4.20;1.80;;;;;;;28.51;30.35;100444.41;20942533;28;20037;-81
2022/07/30 12:13:38;;;;;;;4.18;1.50;;;;;;;27.74;30.53;100439.56;20930663;28;20052;-81
2022/07/30 12:23:46;;;;;;;4.38;1.42;;;;;;;28.51;29.67;100432.78;20939296;28;20362;-81
2022/07/30 12:33:47;;;;;;;2.53;1.20;;;;;;;28.78;29.30;100416.78;20932647;28;20517;-80
2022/07/30 12:43:49;;;;;;;5.47;1.45;;;;;;;29.15;29.56;100416.09;20913510;28;20059;-81
2022/07/30 12:53:51;;;;;;;4.53;1.77;;;;;;;29.17;29.42;100403.31;20926605;28;20087;-81
2022/07/30 13:03:52;;;;;;;4.97;1.47;;;;;;;29.50;29.14;100395.72;20906418;28;20592;-81
2022/07/30 13:13:54;;;;;;;3.13;1.48;;;;;;;28.98;29.61;100390.69;20922327;28;20049;-81
2022/07/30 13:23:55;;;;;;;5.57;1.80;;;;;;;29.62;30.43;100381.97;20901860;28;20523;-81
2022/07/30 13:33:57;;;;;;;3.92;1.55;;;;;;;28.98;31.43;100387.16;20916921;28;20494;-81
2022/07/30 13:43:58;;;;;;;4.18;1.50;;;;;;;28.84;31.20;100381.19;20915099;28;20045;-81
2022/07/30 13:53:59;;;;;;;3.40;1.35;;;;;;;28.85;29.71;100369.41;20923878;28;20068;-81
2022/07/30 14:04:01;;;;;;;3.83;1.48;;;;;;;29.04;28.75;100356.94;20935854;28;20064;-81
2022/07/30 14:14:02;;;;;;;2.83;1.30;;;;;;;28.76;29.22;100350.56;20946650;28;20168;-81
2022/07/30 14:24:04;;;;;;;3.45;1.40;;;;;;;28.64;28.68;100349.84;20949758;28;20104;-81
2022/07/30 14:34:09;;;;;;;3.60;1.23;;;;;;;28.61;27.59;100342.91;20934889;28;20041;-81
2022/07/30 14:44:12;;;;;;;4.35;1.33;;;;;;;29.36;27.00;100343.94;20949366;28;20127;-82
2022/07/30 14:54:15;;;;;;;2.28;1.15;;;;;;;29.29;27.04;100332.06;20946893;28;20056;-81
2022/07/30 15:04:17;;;;;;;4.30;1.23;;;;;;;29.50;25.51;100328.28;20930956;28;20052;-81
2022/07/30 15:14:18;;;;;;;2.83;1.15;;;;;;;29.75;24.99;100329.47;20933654;28;20137;-81
2022/07/30 15:24:20;;;;;;;6.40;0.90;;;;;;;29.37;25.15;100323.25;20944263;28;20060;-82
2022/07/30 15:34:26;;;;;;;3.65;0.98;;;;;;;29.02;25.80;100329.28;20952494;28;20057;-81
2022/07/30 15:44:28;;;;;;;3.65;1.25;;;;;;;29.33;25.72;100328.06;20928081;28;20044;-81
2022/07/30 15:54:29;;;;;;;3.50;1.00;;;;;;;29.51;25.65;100329.97;20913549;28;20048;-83
2022/07/30 16:04:31;;;;;;;1.88;0.80;;;;;;;29.24;26.19;100326.25;20893636;28;20108;-83
2022/07/30 16:14:33;;;;;;;3.17;0.90;;;;;;;28.78;25.79;100333.22;20908626;28;20073;-83
2022/07/30 16:24:34;;;;;;;3.08;0.88;;;;;;;29.08;26.05;100334.94;20920095;28;20075;-83
2022/07/30 16:34:35;;;;;;;1.95;0.80;;;;;;;29.32;24.99;100333.59;20907930;28;20128;-83
2022/07/30 16:44:37;;;;;;;2.95;1.10;;;;;;;29.37;24.68;100325.94;20914064;28;20048;-83
2022/07/30 16:54:38;;;;;;;3.95;0.80;;;;;;;29.39;24.98;100324.78;20914092;28;20084;-82
2022/07/30 17:04:40;;;;;;;2.50;0.88;;;;;;;28.72;26.27;100322.19;20904395;28;20047;-83
2022/07/30 17:14:41;;;;;;;1.13;0.60;;;;;;;28.63;26.23;100337.34;20911683;28;20564;-82
2022/07/30 17:24:44;;;;;;;1.80;0.83;;;;;;;28.53;26.63;100334.66;20889846;28;20072;-83
2022/07/30 17:34:45;;;;;;;2.88;1.13;;;;;;;28.35;26.90;100345.28;20887252;28;20047;-83
2022/07/30 17:44:47;;;;;;;2.80;1.05;;;;;;;28.47;27.02;100350.56;20886208;28;20048;-82
2022/07/30 17:54:48;;;;;;;4.50;0.95;;;;;;;28.63;26.80;100351.69;20887120;28;20393;-83
2022/07/30 18:04:50;;;;;;;1.73;0.77;;;;;;;28.25;29.91;100360.53;20886004;28;20056;-83
2022/07/30 18:14:56;;;;;;;3.45;1.23;;;;;;;27.94;28.41;100364.28;20885241;28;20045;-83
2022/07/30 18:24:59;;;;;;;3.63;1.00;;;;;;;27.70;28.38;100381.59;20886536;28;20129;-82
2022/07/30 18:35:00;;;;;;;2.80;1.30;;;;;;;27.48;29.84;100389.81;20864169;28;20056;-83
2022/07/30 18:45:02;;;;;;;2.90;1.20;;;;;;;27.14;31.40;100405.31;20818169;28;20310;-83
2022/07/30 18:55:03;;;;;;;2.28;1.10;;;;;;;26.80;31.30;100406.28;20857339;28;20059;-83
2022/07/30 19:05:05;;;;;;;1.98;0.90;;;;;;;26.57;31.23;100415.41;20851188;28;20033;-83
2022/07/30 19:15:09;;;;;;;2.35;0.93;;;;;;;26.05;33.43;100415.06;20854680;28;20048;-83
2022/07/30 19:25:14;;;;;;;2.47;1.10;;;;;;;25.54;37.03;100430.75;20841500;28;20128;-82
2022/07/30 19:35:16;;;;;;;3.90;1.08;;;;;;;25.15;37.99;100450.75;20853360;28;20095;-82
2022/07/30 19:45:17;;;;;;;3.38;1.20;;;;;;;24.82;38.12;100463.84;20870063;28;20721;-82
2022/07/30 19:55:18;;;;;;;3.75;1.00;;;;;;;24.42;37.42;100483.78;20845441;28;20079;-82
2022/07/30 20:05:35;;;;;;;3.03;1.20;;;;;;;24.43;36.65;100496.19;20848435;28;20037;-82
2022/07/30 20:15:57;;;;;;;5.28;1.60;;;;;;;24.36;37.42;100498.47;20841152;28;20663;-82
2022/07/30 20:25:59;;;;;;;2.45;1.27;;;;;;;24.17;38.84;100509.59;20840581;28;20046;-83
2022/07/30 20:36:00;;;;;;;6.63;1.63;;;;;;;24.00;40.26;100523.28;20847984;28;20049;-82
2022/07/30 20:46:04;;;;;;;4.50;1.50;;;;;;;23.92;40.45;100526.50;20845151;28;20044;-82
2022/07/30 20:56:12;;;;;;;5.55;1.77;;;;;;;23.72;40.65;100529.72;20847899;28;20037;-82
2022/07/30 21:06:15;;;;;;;3.15;1.60;;;;;;;23.56;40.19;100529.84;20869951;28;20319;-83
2022/07/30 21:16:16;;;;;;;3.55;1.75;;;;;;;23.43;39.42;100529.84;20877811;28;20068;-83
2022/07/30 21:26:17;;;;;;;4.30;1.50;;;;;;;23.34;39.55;100551.81;20864496;28;20167;-83
2022/07/30 21:36:23;;;;;;;4.72;1.65;;;;;;;23.38;38.77;100555.13;20874837;28;20086;-81
2022/07/30 21:46:25;;;;;;;5.80;1.73;;;;;;;23.36;38.83;100546.38;20850899;28;20049;-81
2022/07/30 21:56:27;;;;;;;4.30;1.80;;;;;;;22.99;40.09;100559.47;20852062;28;20597;-80
2022/07/30 22:06:28;;;;;;;5.53;2.03;;;;;;;22.87;40.52;100557.56;20864432;28;20046;-81
2022/07/30 22:16:30;;;;;;;4.57;2.00;;;;;;;22.70;40.56;100563.97;20863709;28;20056;-81
2022/07/30 22:26:34;;;;;;;4.30;1.90;;;;;;;22.58;40.70;100570.97;20845127;28;20046;-80
2022/07/30 22:36:35;;;;;;;4.22;2.03;;;;;;;22.26;41.87;100576.47;20874119;28;20049;-80
2022/07/30 22:46:37;;;;;;;3.92;2.15;;;;;;;22.32;42.42;100580.56;20862592;28;20134;-81
2022/07/30 22:56:38;;;;;;;4.45;2.10;;;;;;;22.01;43.37;100570.91;20859238;28;20053;-80
2022/07/30 23:06:40;;;;;;;3.92;1.92;;;;;;;21.78;45.45;100569.63;20868895;28;20041;-81
2022/07/30 23:16:42;;;;;;;4.63;2.10;;;;;;;21.65;46.06;100569.47;20891335;28;20045;-81
2022/07/30 23:26:52;;;;;;;6.75;2.20;;;;;;;21.71;45.32;100566.47;20874315;28;20087;-81
2022/07/30 23:36:54;;;;;;;4.17;2.00;;;;;;;21.51;46.59;100566.75;20866369;28;20045;-81
2022/07/30 23:46:56;;;;;;;4.25;1.90;;;;;;;21.54;46.82;100566.59;20881253;28;20077;-81
2022/07/30 23:56:58;;;;;;;7.38;2.35;;;;;;;21.33;48.60;100567.84;20860628;28;20056;-81
